Dahli Brooke — WDH3184 — position and weather

sailwx.info

Track history (hours):
 
Tides and Currents Weather Stations Pressure Air Temp Water Temp Dewpoint Dewpoint Depression Visibility Wind Speed Wind Dir Waves Ship Positions

Dahli Brooke

Owner: Dahli Brooke, LLC., Sulphur, LA. More information available from US FCC via Universal Licensing System and Coast Guard Vessel Documentation Center.

Last reported at 2018-Apr-19 13:57 UTC. Time now 2018-Apr-19 15:14 UTC.
Position N 29°44' W 095°01'.

Length 25 m.

Type: Fishing. MMSI: 367605130.

Date/timePositionNaut miles runAvg speedWind from/ knotsBaromVisibWave heightAir tempDewpointWater temp
2018-Apr-19 13:57N 29°44' W 095°01'0 0.0
2018-Apr-19 00:30N 29°44' W 095°01'0 0.0
2018-Apr-18 23:52N 29°44' W 095°01'0 0.0
2018-Apr-18 23:28N 29°44' W 095°01'0 0.0
2018-Apr-18 22:50N 29°44' W 095°01'0 0.0
2018-Apr-18 22:14N 29°44' W 095°01'0 0.0
2018-Apr-18 21:58N 29°44' W 095°01'0 0.0
2018-Apr-18 21:18N 29°44' W 095°01'0 0.0
2018-Apr-18 20:59N 29°44' W 095°01'0 0.0
2018-Apr-18 20:30N 29°44' W 095°01'0 0.0
2018-Apr-18 20:00N 29°44' W 095°01'0 0.0
2018-Apr-18 19:28N 29°44' W 095°01'0 0.0
2018-Apr-18 18:53N 29°44' W 095°01'0 0.0
2018-Apr-18 17:43N 29°44' W 095°01'1 6.1
2018-Apr-18 17:30N 29°44' W 095°03'3 6.4
2018-Apr-18 17:00N 29°46' W 095°06'1 0.6
2018-Apr-18 16:10N 29°46' W 095°06'1 4.1
2018-Apr-18 16:00N 29°46' W 095°05'1 1.2
2018-Apr-18 15:25N 29°46' W 095°06'1 3.5
2018-Apr-18 15:00N 29°46' W 095°05'3 6.9
2018-Apr-18 14:30N 29°44' W 095°01'0 0.3
2018-Apr-18 13:37N 29°44' W 095°01'0 0.0
2018-Apr-18 13:10N 29°44' W 095°01'0 0.0
2018-Apr-18 12:58N 29°44' W 095°01'0 0.5
2018-Apr-18 12:28N 29°44' W 095°01'0 0.0
2018-Apr-18 08:19N 29°44' W 095°01'0 0.0
2018-Apr-18 07:58N 29°44' W 095°01'0 0.0
2018-Apr-18 07:30N 29°44' W 095°01'0 0.0
2018-Apr-18 06:46N 29°44' W 095°01'5 2.9
2018-Apr-18 05:03N 29°46' W 095°06'0 0.0
2018-Apr-18 05:00N 29°46' W 095°06'0 0.0
2018-Apr-18 04:28N 29°46' W 095°06'0 0.0
2018-Apr-18 03:48N 29°46' W 095°06'0 0.0
2018-Apr-18 03:28N 29°46' W 095°06'0 0.0
2018-Apr-18 03:00N 29°46' W 095°06'0 0.0
2018-Apr-18 02:28N 29°46' W 095°06'0 0.0
2018-Apr-18 01:58N 29°46' W 095°06'0 0.0
2018-Apr-18 01:28N 29°46' W 095°06'0 0.0
2018-Apr-18 00:57N 29°46' W 095°06'0 0.0
2018-Apr-18 00:22N 29°46' W 095°06'0 0.0
2018-Apr-17 23:52N 29°46' W 095°06'0 0.0
2018-Apr-17 23:30N 29°46' W 095°06'0 0.0
2018-Apr-17 22:59N 29°46' W 095°06'0 0.0
2018-Apr-17 22:27N 29°46' W 095°06'0 0.0
2018-Apr-17 22:00N 29°46' W 095°06'0 0.0
2018-Apr-17 21:30N 29°46' W 095°06'0 0.0
2018-Apr-17 20:59N 29°46' W 095°06'0 0.0
2018-Apr-17 20:30N 29°46' W 095°06'0 0.0
2018-Apr-17 19:58N 29°46' W 095°06'0 0.9
2018-Apr-17 19:27N 29°46' W 095°06'1 2.4
2018-Apr-17 18:58N 29°47' W 095°05'1 2.7
2018-Apr-17 18:30N 29°46' W 095°06'0 0.3
2018-Apr-17 17:57N 29°46' W 095°06'1 1.3
2018-Apr-17 17:30N 29°46' W 095°05'3 5.4
2018-Apr-17 16:59N 29°44' W 095°03'3 6.2
2018-Apr-17 16:30N 29°42' W 095°01'4 7.1
2018-Apr-17 16:00N 29°39' W 094°58'4 7.3
2018-Apr-17 15:30N 29°36' W 094°57'4 7.7
2018-Apr-17 15:00N 29°33' W 094°54'4 8.0
2018-Apr-17 14:30N 29°29' W 094°52'4 8.2
2018-Apr-17 13:59N 29°25' W 094°50'4 7.9
2018-Apr-17 13:30N 29°22' W 094°47'3 6.0
2018-Apr-17 13:00N 29°24' W 094°45'3 5.8
2018-Apr-17 12:29N 29°26' W 094°42'3 6.2
2018-Apr-17 12:00N 29°28' W 094°39'3 6.1
2018-Apr-17 11:30N 29°29' W 094°36'3 6.2
2018-Apr-17 11:00N 29°30' W 094°33'3 6.1
2018-Apr-17 10:30N 29°31' W 094°29'2 4.0
2018-Apr-17 09:59N 29°33' W 094°28'2 4.6
2018-Apr-17 09:29N 29°34' W 094°26'2 5.1
2018-Apr-17 09:00N 29°36' W 094°24'2 4.1
2018-Apr-17 08:30N 29°37' W 094°22'2 4.3
2018-Apr-17 08:00N 29°38' W 094°19'3 5.8
2018-Apr-17 07:29N 29°39' W 094°16'3 5.8
2018-Apr-17 07:00N 29°40' W 094°13'3 5.9
2018-Apr-17 06:30N 29°41' W 094°10'2 4.6
2018-Apr-17 06:00N 29°42' W 094°08'3 5.9
2018-Apr-17 05:30N 29°44' W 094°05'3 5.8
2018-Apr-17 05:00N 29°46' W 094°03'3 5.9
2018-Apr-17 04:30N 29°48' W 094°00'3 6.4
2018-Apr-17 04:00N 29°50' W 093°57'5 9.2
2018-Apr-17 03:30N 29°54' W 093°54'4 8.0
2018-Apr-17 03:00N 29°57' W 093°52'2 3.9
2018-Apr-17 02:30N 29°59' W 093°50'4 7.5
2018-Apr-17 02:00N 30°00' W 093°46'4 7.5
2018-Apr-17 01:30N 30°03' W 093°43'3 6.3
2018-Apr-17 00:58N 30°04' W 093°40'3 5.9
2018-Apr-17 00:28N 30°04' W 093°36'3 5.5
2018-Apr-17 00:00N 30°04' W 093°33'3 5.5
2018-Apr-16 23:30N 30°04' W 093°30'3 5.6
2018-Apr-16 23:00N 30°04' W 093°27'3 5.6
2018-Apr-16 22:30N 30°04' W 093°24'2 4.0
2018-Apr-16 22:00N 30°04' W 093°21'2 3.9
2018-Apr-16 21:30N 30°05' W 093°20'4 7.8
2018-Apr-16 21:00N 30°09' W 093°20'1 2.9
2018-Apr-16 20:30N 30°10' W 093°19'1 1.4
2018-Apr-16 19:59N 30°10' W 093°19'3 7.1
2018-Apr-16 19:30N 30°06' W 093°20'3 5.8
2018-Apr-16 19:00N 30°04' W 093°21'0 0.1
2018-Apr-16 18:30N 30°04' W 093°21'0 0.0
2018-Apr-16 18:00N 30°04' W 093°21'0 0.0
2018-Apr-16 17:30N 30°04' W 093°21'0 0.0
2018-Apr-16 17:00N 30°04' W 093°21'0 0.0
2018-Apr-16 16:30N 30°04' W 093°21'0 0.0
2018-Apr-16 16:00N 30°04' W 093°21'0 0.0
2018-Apr-16 15:30N 30°04' W 093°21'0 0.0
2018-Apr-16 15:00N 30°04' W 093°21'0 0.0
2018-Apr-16 14:30N 30°04' W 093°21'0 0.0
2018-Apr-16 14:00N 30°04' W 093°21'0 0.0
2018-Apr-16 13:30N 30°04' W 093°21'0 0.0
2018-Apr-16 13:00N 30°04' W 093°21'0 0.0
2018-Apr-16 12:30N 30°04' W 093°21'0 0.0
2018-Apr-16 12:00N 30°04' W 093°21'1 1.4
2018-Apr-16 11:30N 30°04' W 093°22'0 0.9
2018-Apr-16 11:00N 30°04' W 093°23'2 4.9
2018-Apr-16 10:30N 30°04' W 093°25'3 6.5
2018-Apr-16 10:00N 30°04' W 093°29'3 6.5
2018-Apr-16 09:30N 30°04' W 093°33'3 6.5
2018-Apr-16 09:00N 30°04' W 093°37'3 6.4
2018-Apr-16 08:30N 30°04' W 093°40'3 6.0
2018-Apr-16 08:00N 30°03' W 093°44'3 5.6
2018-Apr-16 07:29N 30°00' W 093°46'3 5.7
2018-Apr-16 07:00N 29°59' W 093°48'3 5.2
2018-Apr-16 06:30N 29°58' W 093°51'3 6.1
2018-Apr-16 06:00N 29°55' W 093°53'3 5.9
2018-Apr-16 05:30N 29°53' W 093°55'2 3.9
2018-Apr-16 05:00N 29°51' W 093°56'3 5.5
2018-Apr-16 04:30N 29°49' W 093°58'3 6.7
2018-Apr-16 04:00N 29°47' W 094°01'3 6.6
2018-Apr-16 03:30N 29°45' W 094°04'3 6.3
2018-Apr-16 03:00N 29°43' W 094°07'3 5.9
2018-Apr-16 02:30N 29°41' W 094°10'3 6.0
2018-Apr-16 02:00N 29°40' W 094°13'3 5.7
2018-Apr-16 01:30N 29°39' W 094°16'32 4.4
2018-Apr-15 18:02N 29°28' W 094°51'0 8.7
2018-Apr-15 17:59N 29°28' W 094°51'4 8.4
2018-Apr-15 17:30N 29°32' W 094°54'4 7.7
2018-Apr-15 17:00N 29°35' W 094°56'4 7.6
2018-Apr-15 16:30N 29°39' W 094°58'4 7.8
2018-Apr-15 16:00N 29°42' W 095°00'2 3.9
2018-Apr-15 15:30N 29°44' W 095°01'0 0.3
2018-Apr-15 14:54N 29°43' W 095°01'3 7.6
2018-Apr-15 14:29N 29°45' W 095°04'2 4.0
2018-Apr-15 13:58N 29°47' W 095°06'1 1.5
2018-Apr-15 13:23N 29°46' W 095°06'2 5.1
2018-Apr-15 12:54N 29°44' W 095°03'2 5.0
2018-Apr-15 12:30N 29°44' W 095°01'0 0.0
2018-Apr-15 11:43N 29°44' W 095°01'0 0.0
2018-Apr-15 11:30N 29°44' W 095°01'0 0.0
2018-Apr-15 00:30N 29°44' W 095°01'0 0.0
2018-Apr-15 00:00N 29°44' W 095°01'0 0.0
2018-Apr-14 23:25N 29°44' W 095°01'0 0.0
2018-Apr-14 23:00N 29°44' W 095°01'0 0.0
2018-Apr-14 22:00N 29°44' W 095°01'3 6.0
2018-Apr-14 21:30N 29°45' W 095°04'2 0.4
2018-Apr-14 16:54N 29°46' W 095°06'2 4.6
2018-Apr-14 16:28N 29°45' W 095°04'2 4.9
2018-Apr-14 16:00N 29°44' W 095°02'1 1.6
2018-Apr-14 15:30N 29°43' W 095°01'4 7.6
2018-Apr-14 15:00N 29°46' W 095°05'0 0.1
2018-Apr-14 06:43N 29°46' W 095°05'2 7.2
2018-Apr-14 06:24N 29°44' W 095°03'3 7.1
2018-Apr-14 06:00N 29°42' W 095°01'4 7.5
2018-Apr-14 05:30N 29°39' W 094°58'4 7.7
2018-Apr-14 05:00N 29°36' W 094°56'4 8.0
2018-Apr-14 04:30N 29°32' W 094°54'4 7.9
2018-Apr-14 03:59N 29°29' W 094°51'29 3.3
2018-Apr-13 19:11N 29°37' W 094°20'4 6.9
2018-Apr-13 18:40N 29°39' W 094°16'1 6.8
2018-Apr-13 18:29N 29°40' W 094°15'3 7.0
2018-Apr-13 18:00N 29°41' W 094°11'3 6.8
2018-Apr-13 17:30N 29°42' W 094°08'4 7.0
2018-Apr-13 17:00N 29°45' W 094°05'3 7.0
2018-Apr-13 16:30N 29°47' W 094°02'3 7.0
2018-Apr-13 16:00N 29°49' W 093°59'4 8.1
2018-Apr-13 15:30N 29°52' W 093°56'5 9.2
2018-Apr-13 15:00N 29°56' W 093°52'3 6.8
2018-Apr-13 14:30N 29°59' W 093°50'4 8.3
2018-Apr-13 14:00N 30°01' W 093°46'4 7.8
2018-Apr-13 13:30N 30°03' W 093°42'3 6.9
2018-Apr-13 13:00N 30°04' W 093°38'4 6.7
2018-Apr-13 12:25N 30°04' W 093°34'3 6.7
2018-Apr-13 12:00N 30°04' W 093°31'3 6.7
2018-Apr-13 11:30N 30°04' W 093°27'3 6.7
2018-Apr-13 11:00N 30°04' W 093°23'2 4.1
2018-Apr-13 10:30N 30°04' W 093°21'2 4.2
2018-Apr-13 10:00N 30°06' W 093°20'4 7.3
2018-Apr-13 09:30N 30°10' W 093°19'1 1.3
2018-Apr-13 09:00N 30°10' W 093°19'0 0.1
2018-Apr-13 08:30N 30°10' W 093°19'0 0.4
2018-Apr-13 08:00N 30°10' W 093°19'4 7.7
2018-Apr-13 07:30N 30°06' W 093°20'2 4.8
2018-Apr-13 07:00N 30°04' W 093°21'1 1.4
2018-Apr-13 06:30N 30°04' W 093°21'1 2.1
2018-Apr-13 06:00N 30°04' W 093°20'2 5.0
2018-Apr-13 05:30N 30°06' W 093°19'0 0.5
2018-Apr-13 05:00N 30°06' W 093°18'0 0.8
2018-Apr-13 04:30N 30°06' W 093°19'3 5.6
2018-Apr-13 04:00N 30°04' W 093°21'1 1.2
2018-Apr-13 03:30N 30°04' W 093°21'1 1.8
2018-Apr-13 03:00N 30°04' W 093°21'2 3.5
2018-Apr-13 02:30N 30°06' W 093°19'2 3.2
2018-Apr-13 02:00N 30°05' W 093°18'1 2.5
2018-Apr-13 01:30N 30°04' W 093°16'1 1.8
2018-Apr-13 01:00N 30°04' W 093°16'0 0.8
2018-Apr-13 00:30N 30°03' W 093°16'3 5.0
2018-Apr-13 00:00N 30°01' W 093°14'2 3.1
2018-Apr-12 23:30N 29°60' W 093°13'3 5.8
2018-Apr-12 23:00N 29°58' W 093°11'3 5.6
2018-Apr-12 22:30N 29°56' W 093°08'3 6.0
2018-Apr-12 21:59N 29°56' W 093°05'  
Track history (hours):
 
Tides and Currents Weather Stations Pressure Air Temp Water Temp Dewpoint Dewpoint Depression Visibility Wind Speed Wind Dir Waves Ship Positions

Dahli Brooke

Owner: Dahli Brooke, LLC., Sulphur, LA. More information available from US FCC via Universal Licensing System and Coast Guard Vessel Documentation Center.

Last reported at 2018-Apr-19 13:57 UTC. Time now 2018-Apr-19 15:14 UTC.
Position N 29°44' W 095°01'.

Length 25 m.

Type: Fishing. MMSI: 367605130.

Date/timePositionNaut miles runAvg speedWind from/ knotsBaromVisibWave heightAir tempDewpointWater temp
2018-Apr-19 13:57N 29°44' W 095°01'0 0.0
2018-Apr-19 00:30N 29°44' W 095°01'0 0.0
2018-Apr-18 23:52N 29°44' W 095°01'0 0.0
2018-Apr-18 23:28N 29°44' W 095°01'0 0.0
2018-Apr-18 22:50N 29°44' W 095°01'0 0.0
2018-Apr-18 22:14N 29°44' W 095°01'0 0.0
2018-Apr-18 21:58N 29°44' W 095°01'0 0.0
2018-Apr-18 21:18N 29°44' W 095°01'0 0.0
2018-Apr-18 20:59N 29°44' W 095°01'0 0.0
2018-Apr-18 20:30N 29°44' W 095°01'0 0.0
2018-Apr-18 20:00N 29°44' W 095°01'0 0.0
2018-Apr-18 19:28N 29°44' W 095°01'0 0.0
2018-Apr-18 18:53N 29°44' W 095°01'0 0.0
2018-Apr-18 17:43N 29°44' W 095°01'1 6.1
2018-Apr-18 17:30N 29°44' W 095°03'3 6.4
2018-Apr-18 17:00N 29°46' W 095°06'1 0.6
2018-Apr-18 16:10N 29°46' W 095°06'1 4.1
2018-Apr-18 16:00N 29°46' W 095°05'1 1.2
2018-Apr-18 15:25N 29°46' W 095°06'1 3.5
2018-Apr-18 15:00N 29°46' W 095°05'3 6.9
2018-Apr-18 14:30N 29°44' W 095°01'0 0.3
2018-Apr-18 13:37N 29°44' W 095°01'0 0.0
2018-Apr-18 13:10N 29°44' W 095°01'0 0.0
2018-Apr-18 12:58N 29°44' W 095°01'0 0.5
2018-Apr-18 12:28N 29°44' W 095°01'0 0.0
2018-Apr-18 08:19N 29°44' W 095°01'0 0.0
2018-Apr-18 07:58N 29°44' W 095°01'0 0.0
2018-Apr-18 07:30N 29°44' W 095°01'0 0.0
2018-Apr-18 06:46N 29°44' W 095°01'5 2.9
2018-Apr-18 05:03N 29°46' W 095°06'0 0.0
2018-Apr-18 05:00N 29°46' W 095°06'0 0.0
2018-Apr-18 04:28N 29°46' W 095°06'0 0.0
2018-Apr-18 03:48N 29°46' W 095°06'0 0.0
2018-Apr-18 03:28N 29°46' W 095°06'0 0.0
2018-Apr-18 03:00N 29°46' W 095°06'0 0.0
2018-Apr-18 02:28N 29°46' W 095°06'0 0.0
2018-Apr-18 01:58N 29°46' W 095°06'0 0.0
2018-Apr-18 01:28N 29°46' W 095°06'0 0.0
2018-Apr-18 00:57N 29°46' W 095°06'0 0.0
2018-Apr-18 00:22N 29°46' W 095°06'0 0.0
2018-Apr-17 23:52N 29°46' W 095°06'0 0.0
2018-Apr-17 23:30N 29°46' W 095°06'0 0.0
2018-Apr-17 22:59N 29°46' W 095°06'0 0.0
2018-Apr-17 22:27N 29°46' W 095°06'0 0.0
2018-Apr-17 22:00N 29°46' W 095°06'0 0.0
2018-Apr-17 21:30N 29°46' W 095°06'0 0.0
2018-Apr-17 20:59N 29°46' W 095°06'0 0.0
2018-Apr-17 20:30N 29°46' W 095°06'0 0.0
2018-Apr-17 19:58N 29°46' W 095°06'0 0.9
2018-Apr-17 19:27N 29°46' W 095°06'1 2.4
2018-Apr-17 18:58N 29°47' W 095°05'1 2.7
2018-Apr-17 18:30N 29°46' W 095°06'0 0.3
2018-Apr-17 17:57N 29°46' W 095°06'1 1.3
2018-Apr-17 17:30N 29°46' W 095°05'3 5.4
2018-Apr-17 16:59N 29°44' W 095°03'3 6.2
2018-Apr-17 16:30N 29°42' W 095°01'4 7.1
2018-Apr-17 16:00N 29°39' W 094°58'4 7.3
2018-Apr-17 15:30N 29°36' W 094°57'4 7.7
2018-Apr-17 15:00N 29°33' W 094°54'4 8.0
2018-Apr-17 14:30N 29°29' W 094°52'4 8.2
2018-Apr-17 13:59N 29°25' W 094°50'4 7.9
2018-Apr-17 13:30N 29°22' W 094°47'3 6.0
2018-Apr-17 13:00N 29°24' W 094°45'3 5.8
2018-Apr-17 12:29N 29°26' W 094°42'3 6.2
2018-Apr-17 12:00N 29°28' W 094°39'3 6.1
2018-Apr-17 11:30N 29°29' W 094°36'3 6.2
2018-Apr-17 11:00N 29°30' W 094°33'3 6.1
2018-Apr-17 10:30N 29°31' W 094°29'2 4.0
2018-Apr-17 09:59N 29°33' W 094°28'2 4.6
2018-Apr-17 09:29N 29°34' W 094°26'2 5.1
2018-Apr-17 09:00N 29°36' W 094°24'2 4.1
2018-Apr-17 08:30N 29°37' W 094°22'2 4.3
2018-Apr-17 08:00N 29°38' W 094°19'3 5.8
2018-Apr-17 07:29N 29°39' W 094°16'3 5.8
2018-Apr-17 07:00N 29°40' W 094°13'3 5.9
2018-Apr-17 06:30N 29°41' W 094°10'2 4.6
2018-Apr-17 06:00N 29°42' W 094°08'3 5.9
2018-Apr-17 05:30N 29°44' W 094°05'3 5.8
2018-Apr-17 05:00N 29°46' W 094°03'3 5.9
2018-Apr-17 04:30N 29°48' W 094°00'3 6.4
2018-Apr-17 04:00N 29°50' W 093°57'5 9.2
2018-Apr-17 03:30N 29°54' W 093°54'4 8.0
2018-Apr-17 03:00N 29°57' W 093°52'2 3.9
2018-Apr-17 02:30N 29°59' W 093°50'4 7.5
2018-Apr-17 02:00N 30°00' W 093°46'4 7.5
2018-Apr-17 01:30N 30°03' W 093°43'3 6.3
2018-Apr-17 00:58N 30°04' W 093°40'3 5.9
2018-Apr-17 00:28N 30°04' W 093°36'3 5.5
2018-Apr-17 00:00N 30°04' W 093°33'3 5.5
2018-Apr-16 23:30N 30°04' W 093°30'3 5.6
2018-Apr-16 23:00N 30°04' W 093°27'3 5.6
2018-Apr-16 22:30N 30°04' W 093°24'2 4.0
2018-Apr-16 22:00N 30°04' W 093°21'2 3.9
2018-Apr-16 21:30N 30°05' W 093°20'4 7.8
2018-Apr-16 21:00N 30°09' W 093°20'1 2.9
2018-Apr-16 20:30N 30°10' W 093°19'1 1.4
2018-Apr-16 19:59N 30°10' W 093°19'3 7.1
2018-Apr-16 19:30N 30°06' W 093°20'3 5.8
2018-Apr-16 19:00N 30°04' W 093°21'0 0.1
2018-Apr-16 18:30N 30°04' W 093°21'0 0.0
2018-Apr-16 18:00N 30°04' W 093°21'0 0.0
2018-Apr-16 17:30N 30°04' W 093°21'0 0.0
2018-Apr-16 17:00N 30°04' W 093°21'0 0.0
2018-Apr-16 16:30N 30°04' W 093°21'0 0.0
2018-Apr-16 16:00N 30°04' W 093°21'0 0.0
2018-Apr-16 15:30N 30°04' W 093°21'0 0.0
2018-Apr-16 15:00N 30°04' W 093°21'0 0.0
2018-Apr-16 14:30N 30°04' W 093°21'0 0.0
2018-Apr-16 14:00N 30°04' W 093°21'0 0.0
2018-Apr-16 13:30N 30°04' W 093°21'0 0.0
2018-Apr-16 13:00N 30°04' W 093°21'0 0.0
2018-Apr-16 12:30N 30°04' W 093°21'0 0.0
2018-Apr-16 12:00N 30°04' W 093°21'1 1.4
2018-Apr-16 11:30N 30°04' W 093°22'0 0.9
2018-Apr-16 11:00N 30°04' W 093°23'2 4.9
2018-Apr-16 10:30N 30°04' W 093°25'3 6.5
2018-Apr-16 10:00N 30°04' W 093°29'3 6.5
2018-Apr-16 09:30N 30°04' W 093°33'3 6.5
2018-Apr-16 09:00N 30°04' W 093°37'3 6.4
2018-Apr-16 08:30N 30°04' W 093°40'3 6.0
2018-Apr-16 08:00N 30°03' W 093°44'3 5.6
2018-Apr-16 07:29N 30°00' W 093°46'3 5.7
2018-Apr-16 07:00N 29°59' W 093°48'3 5.2
2018-Apr-16 06:30N 29°58' W 093°51'3 6.1
2018-Apr-16 06:00N 29°55' W 093°53'3 5.9
2018-Apr-16 05:30N 29°53' W 093°55'2 3.9
2018-Apr-16 05:00N 29°51' W 093°56'3 5.5
2018-Apr-16 04:30N 29°49' W 093°58'3 6.7
2018-Apr-16 04:00N 29°47' W 094°01'3 6.6
2018-Apr-16 03:30N 29°45' W 094°04'3 6.3
2018-Apr-16 03:00N 29°43' W 094°07'3 5.9
2018-Apr-16 02:30N 29°41' W 094°10'3 6.0
2018-Apr-16 02:00N 29°40' W 094°13'3 5.7
2018-Apr-16 01:30N 29°39' W 094°16'32 4.4
2018-Apr-15 18:02N 29°28' W 094°51'0 8.7
2018-Apr-15 17:59N 29°28' W 094°51'4 8.4
2018-Apr-15 17:30N 29°32' W 094°54'4 7.7
2018-Apr-15 17:00N 29°35' W 094°56'4 7.6
2018-Apr-15 16:30N 29°39' W 094°58'4 7.8
2018-Apr-15 16:00N 29°42' W 095°00'2 3.9
2018-Apr-15 15:30N 29°44' W 095°01'0 0.3
2018-Apr-15 14:54N 29°43' W 095°01'3 7.6
2018-Apr-15 14:29N 29°45' W 095°04'2 4.0
2018-Apr-15 13:58N 29°47' W 095°06'1 1.5
2018-Apr-15 13:23N 29°46' W 095°06'2 5.1
2018-Apr-15 12:54N 29°44' W 095°03'2 5.0
2018-Apr-15 12:30N 29°44' W 095°01'0 0.0
2018-Apr-15 11:43N 29°44' W 095°01'0 0.0
2018-Apr-15 11:30N 29°44' W 095°01'0 0.0
2018-Apr-15 00:30N 29°44' W 095°01'0 0.0
2018-Apr-15 00:00N 29°44' W 095°01'0 0.0
2018-Apr-14 23:25N 29°44' W 095°01'0 0.0
2018-Apr-14 23:00N 29°44' W 095°01'0 0.0
2018-Apr-14 22:00N 29°44' W 095°01'3 6.0
2018-Apr-14 21:30N 29°45' W 095°04'2 0.4
2018-Apr-14 16:54N 29°46' W 095°06'2 4.6
2018-Apr-14 16:28N 29°45' W 095°04'2 4.9
2018-Apr-14 16:00N 29°44' W 095°02'1 1.6
2018-Apr-14 15:30N 29°43' W 095°01'4 7.6
2018-Apr-14 15:00N 29°46' W 095°05'0 0.1
2018-Apr-14 06:43N 29°46' W 095°05'2 7.2
2018-Apr-14 06:24N 29°44' W 095°03'3 7.1
2018-Apr-14 06:00N 29°42' W 095°01'4 7.5
2018-Apr-14 05:30N 29°39' W 094°58'4 7.7
2018-Apr-14 05:00N 29°36' W 094°56'4 8.0
2018-Apr-14 04:30N 29°32' W 094°54'4 7.9
2018-Apr-14 03:59N 29°29' W 094°51'29 3.3
2018-Apr-13 19:11N 29°37' W 094°20'4 6.9
2018-Apr-13 18:40N 29°39' W 094°16'1 6.8
2018-Apr-13 18:29N 29°40' W 094°15'3 7.0
2018-Apr-13 18:00N 29°41' W 094°11'3 6.8
2018-Apr-13 17:30N 29°42' W 094°08'4 7.0
2018-Apr-13 17:00N 29°45' W 094°05'3 7.0
2018-Apr-13 16:30N 29°47' W 094°02'3 7.0
2018-Apr-13 16:00N 29°49' W 093°59'4 8.1
2018-Apr-13 15:30N 29°52' W 093°56'5 9.2
2018-Apr-13 15:00N 29°56' W 093°52'3 6.8
2018-Apr-13 14:30N 29°59' W 093°50'4 8.3
2018-Apr-13 14:00N 30°01' W 093°46'4 7.8
2018-Apr-13 13:30N 30°03' W 093°42'3 6.9
2018-Apr-13 13:00N 30°04' W 093°38'4 6.7
2018-Apr-13 12:25N 30°04' W 093°34'3 6.7
2018-Apr-13 12:00N 30°04' W 093°31'3 6.7
2018-Apr-13 11:30N 30°04' W 093°27'3 6.7
2018-Apr-13 11:00N 30°04' W 093°23'2 4.1
2018-Apr-13 10:30N 30°04' W 093°21'2 4.2
2018-Apr-13 10:00N 30°06' W 093°20'4 7.3
2018-Apr-13 09:30N 30°10' W 093°19'1 1.3
2018-Apr-13 09:00N 30°10' W 093°19'0 0.1
2018-Apr-13 08:30N 30°10' W 093°19'0 0.4
2018-Apr-13 08:00N 30°10' W 093°19'4 7.7
2018-Apr-13 07:30N 30°06' W 093°20'2 4.8
2018-Apr-13 07:00N 30°04' W 093°21'1 1.4
2018-Apr-13 06:30N 30°04' W 093°21'1 2.1
2018-Apr-13 06:00N 30°04' W 093°20'2 5.0
2018-Apr-13 05:30N 30°06' W 093°19'0 0.5
2018-Apr-13 05:00N 30°06' W 093°18'0 0.8
2018-Apr-13 04:30N 30°06' W 093°19'3 5.6
2018-Apr-13 04:00N 30°04' W 093°21'1 1.2
2018-Apr-13 03:30N 30°04' W 093°21'1 1.8
2018-Apr-13 03:00N 30°04' W 093°21'2 3.5
2018-Apr-13 02:30N 30°06' W 093°19'2 3.2
2018-Apr-13 02:00N 30°05' W 093°18'1 2.5
2018-Apr-13 01:30N 30°04' W 093°16'1 1.8
2018-Apr-13 01:00N 30°04' W 093°16'0 0.8
2018-Apr-13 00:30N 30°03' W 093°16'3 5.0
2018-Apr-13 00:00N 30°01' W 093°14'2 3.1
2018-Apr-12 23:30N 29°60' W 093°13'3 5.8
2018-Apr-12 23:00N 29°58' W 093°11'3 5.6
2018-Apr-12 22:30N 29°56' W 093°08'3 6.0
2018-Apr-12 21:59N 29°56' W 093°05'  

Dump ship's entire track history